• Join FlightAware (Why Join?)
  • Login
  • US Flag 
06:14AM EDT


 

Airport Tracker/Info


-or-


 

Live Flight TrackerFlight Track Log ✈ N30483 ✈ 22-Jun-2013 ✈ KBID - KDXR

Flight Track Log - Related Links

Times and Time Zones

All times are in EDT time to prevent confusion due to time zone crossing. See the N30483 flight status page for this flight to view local times or setup timezone preferences in your user account.

Time Position Orientation Groundspeed Altitude Reporting Facility
EDT Latitude Longitude Course Direction KTS MPH feet Rate Location/Type
03:18PM 41.1911 -71.6678 295° West 91 105 1,900  Level Boston Center
03:19PM 41.1997 -71.6925 295° West 101 116 2,200 420 Climbing Boston Center
03:20PM 41.2122 -71.7228 299° West 87 100 2,700 420 Climbing Boston Center
03:21PM 41.2231 -71.7639 289° West 115 132 3,100 420 Climbing Boston Center
03:22PM 41.2378 -71.8053 295° West 97 112 3,600 420 Climbing Boston Center
03:23PM 41.2442 -71.8383 284° West 103 119 4,000 360 Climbing Boston Center
03:24PM 41.2506 -71.8742 283° West 98 113 4,400 240 Climbing Boston Center
03:25PM 41.2592 -71.9072 289° West 95 109 4,500  Climbing Boston Center
03:26PM 41.2697 -71.9539 287° West 110 127 4,500  Level Boston Center
03:27PM 41.2783 -71.9872 289° West 101 116 4,500  Level Boston Center
03:28PM 41.2867 -72.0286 285° West 106 122 4,500  Level Boston Center
03:29PM 41.2931 -72.0672 282° West 103 119 4,500  Level Boston Center
03:30PM 41.2975 -72.1003 280° West 102 117 4,500  Level Boston Center
03:31PM 41.3000 -72.1500 274° West 112 129 4,600  Climbing New York TRACON
03:32PM 41.3167 -72.2000 294° West 108 124 4,600  Level New York TRACON
03:34PM 41.3167 -72.2604 270° West  Level FlightAware Approximate
03:36PM 41.3333 -72.3333 266° West 104 120 4,600  Level New York TRACON
03:37PM 41.3333 -72.3667 270° West 107 123 4,600  Level New York TRACON
03:38PM 41.3333 -72.4000 270° West 105 121 4,600  Level New York TRACON
03:39PM 41.3333 -72.4500 270° West 105 121 4,600  Level New York TRACON
03:40PM 41.3167 -72.4833 236° Southwest 102 117 4,600  Level New York TRACON
03:41PM 41.3034 -72.6173 266° West  Level FlightAware Approximate
03:41PM 41.3167 -72.5167 270° West 100 115 4,600  Level New York TRACON
03:42PM 41.3167 -72.5500 270° West 108 124 4,600  Level New York TRACON
03:43PM 41.3167 -72.6000 270° West 111 128 4,600  Level New York TRACON
03:44PM 41.3167 -72.6333 270° West 107 123 4,600  Level New York TRACON
03:45PM 41.3167 -72.6667 270° West 108 124 4,600  Level New York TRACON
03:46PM 41.3167 -72.7167 270° West 109 125 4,600  Level New York TRACON
03:47PM 41.3167 -72.7500 270° West 110 127 4,600  Level New York TRACON
03:48PM 41.3167 -72.7833 270° West 109 125 4,600  Level New York TRACON
03:49PM 41.3167 -72.8333 270° West 108 124 4,600  Level New York TRACON
03:50PM 41.3167 -72.8667 270° West 105 121 4,600  Level New York TRACON
03:51PM 41.3333 -72.9000 304° West 108 124 4,600  Level New York TRACON
03:52PM 41.3333 -72.9500 270° West 108 124 4,600  Level New York TRACON
03:53PM 41.3333 -72.9833 270° West 108 124 4,600  Level New York TRACON
03:54PM 41.3333 -73.0167 270° West 106 122 4,600  Level New York TRACON
03:55PM 41.3500 -73.0667 294° West 105 121 4,600  Level New York TRACON
03:56PM 41.3500 -73.1000 270° West 104 120 4,600  Level New York TRACON
03:57PM 41.3500 -73.1333 270° West 104 120 4,600  Level New York TRACON
03:59PM 41.3500 -73.1985 270° West  Level FlightAware Approximate
04:06PM 41.3667 -73.4667 285° West  Level FlightAware Approximate
04:07PM 41.3715 -73.4822 285° West  Level Estimated
04:08PM 41.3715 -73.4822 285° West  Level Estimated
04:09PM 41.3715 -73.4822 285° West  Level Estimated
04:10PM 41.3715 -73.4822 285° West  Level Estimated
04:11PM 41.3715 -73.4822 285° West  Level Estimated
04:12PM 41.3715 -73.4822 285° West  Level Estimated
04:13PM 41.3715 -73.4822 285° West  Level Estimated
04:14PM 41.3715 -73.4822 285° West  Level Estimated
04:15PM 41.3715 -73.4822 285° West  Level Estimated
04:16PM 41.3715 -73.4822 285° West  Level Estimated
04:17PM 41.3715 -73.4822 285° West  Level Estimated
04:18PM 41.3715 -73.4822 285° West  Level Estimated
04:19PM 41.3715 -73.4822 285° West  Level Estimated
04:20PM 41.3715 -73.4822 285° West  Level Estimated
04:21PM 41.3715 -73.4822 285° West  Level Estimated
04:22PM 41.3715 -73.4822 285° West  Level Estimated